Time;durP1;ratioP1;P1;durP2;ratioP2;P2;SDS_P1;SDS_P2;PMS_P1;PMS_P2;Temp;Humidity;BMP_temperature;BMP_pressure;BME280_temperature;BME280_humidity;BME280_pressure;Samples;Min_cycle;Max_cycle;Signal;HPM_P1;HPM_P2
2022/12/02 00:01:45;;;;;;;4.20;2.28;;;;;;;;;;5061625;28;20044;-71
2022/12/02 00:04:20;;;;;;;7.53;3.03;;;;;;;;;;5070569;28;20067;-71
2022/12/02 00:06:48;;;;;;;;;;;;;;;;;;5066490;28;20545;-72
2022/12/02 00:09:21;;;;;;;2.17;1.88;;;;;;;;;;5065714;28;19927;-71
2022/12/02 00:11:50;;;;;;;8.23;4.10;;;;;;;;;;5058733;28;20401;-72
2022/12/02 00:14:21;;;;;;;5.97;3.58;;;;;;;;;;5068757;28;20052;-72
2022/12/02 00:16:50;;;;;;;1.83;1.70;;;;;;;;;;5069035;28;20040;-71
2022/12/02 00:19:18;;;;;;;3.05;2.53;;;;;;;;;;5069739;28;20076;-70
2022/12/02 00:21:47;;;;;;;5.53;3.38;;;;;;;;;;5056208;28;20477;-71
2022/12/02 00:24:15;;;;;;;6.38;2.47;;;;;;;;;;5069271;28;20060;-71
2022/12/02 00:26:45;;;;;;;6.10;2.75;;;;;;;;;;5070885;28;20044;-71
2022/12/02 00:29:13;;;;;;;7.30;3.85;;;;;;;;;;5068226;28;20432;-71
2022/12/02 00:31:42;;;;;;;7.82;3.22;;;;;;;;;;5069094;28;20101;-71
2022/12/02 00:34:10;;;;;;;8.48;2.85;;;;;;;;;;5063123;28;20137;-71
2022/12/02 00:36:38;;;;;;;8.60;2.95;;;;;;;;;;5062521;28;20405;-71
2022/12/02 00:39:06;;;;;;;4.22;2.53;;;;;;;;;;5068686;28;20049;-71
2022/12/02 00:41:35;;;;;;;13.38;4.32;;;;;;;;;;5073184;28;20051;-70
2022/12/02 00:47:02;;;;;;;13.93;3.40;;;;;;;;;;5011194;28;20430;-70
2022/12/02 00:49:30;;;;;;;8.32;2.85;;;;;;;;;;5053377;28;20040;-71
2022/12/02 00:51:58;;;;;;;4.47;1.85;;;;;;;;;;5069841;28;20531;-71
2022/12/02 00:54:26;;;;;;;3.45;1.58;;;;;;;;;;5070969;28;20053;-71
2022/12/02 00:56:55;;;;;;;3.65;2.33;;;;;;;;;;5071755;28;20123;-71
2022/12/02 00:59:24;;;;;;;5.22;2.40;;;;;;;;;;5065304;28;20064;-71
2022/12/02 01:01:53;;;;;;;7.13;2.67;;;;;;;;;;5064651;28;20044;-71
2022/12/02 01:04:21;;;;;;;7.28;2.22;;;;;;;;;;5066934;28;20109;-71
2022/12/02 01:06:49;;;;;;;14.93;4.22;;;;;;;;;;5066756;28;20071;-70
2022/12/02 01:09:17;;;;;;;8.90;3.58;;;;;;;;;;5073089;28;20041;-71
2022/12/02 01:11:46;;;;;;;2.53;2.15;;;;;;;;;;5066489;28;20051;-71
2022/12/02 01:14:14;;;;;;;4.32;3.55;;;;;;;;;;5066078;28;20060;-71
2022/12/02 01:16:43;;;;;;;11.98;3.05;;;;;;;;;;5068996;28;20036;-70
2022/12/02 01:19:12;;;;;;;3.45;2.42;;;;;;;;;;5068166;28;20127;-71
2022/12/02 01:21:40;;;;;;;6.68;3.15;;;;;;;;;;5066475;28;20053;-71
2022/12/02 01:24:09;;;;;;;7.35;3.75;;;;;;;;;;5062220;28;20048;-71
2022/12/02 01:26:37;;;;;;;6.07;2.85;;;;;;;;;;5068827;28;20056;-72
2022/12/02 01:29:06;;;;;;;8.77;3.42;;;;;;;;;;5068788;28;20044;-71
2022/12/02 01:31:35;;;;;;;3.97;2.35;;;;;;;;;;5069163;28;20051;-72
2022/12/02 01:34:04;;;;;;;5.90;2.47;;;;;;;;;;5071815;28;20044;-71
2022/12/02 01:36:33;;;;;;;6.97;3.13;;;;;;;;;;5071201;28;20377;-71
2022/12/02 01:39:01;;;;;;;17.15;4.38;;;;;;;;;;5066860;28;20049;-71
2022/12/02 01:41:29;;;;;;;6.03;2.42;;;;;;;;;;5068360;28;20436;-71
2022/12/02 01:43:58;;;;;;;2.90;2.15;;;;;;;;;;5071712;28;20056;-70
2022/12/02 01:46:26;;;;;;;11.23;3.30;;;;;;;;;;5063598;28;20052;-72
2022/12/02 01:48:54;;;;;;;11.32;4.03;;;;;;;;;;5072629;28;20500;-72
2022/12/02 01:51:24;;;;;;;3.30;3.05;;;;;;;;;;5069507;28;20056;-71
2022/12/02 01:53:52;;;;;;;11.65;3.97;;;;;;;;;;5071926;28;20079;-71
2022/12/02 01:56:20;;;;;;;8.82;3.13;;;;;;;;;;5069938;28;20048;-71
2022/12/02 01:58:48;;;;;;;13.05;3.17;;;;;;;;;;5067583;28;20519;-71
2022/12/02 02:01:24;;;;;;;11.93;4.25;;;;;;;;;;5068896;28;20064;-71
2022/12/02 02:03:52;;;;;;;8.77;3.97;;;;;;;;;;5063907;28;20127;-72
2022/12/02 02:06:20;;;;;;;8.20;3.03;;;;;;;;;;5064743;28;20066;-72
2022/12/02 02:08:50;;;;;;;5.68;3.28;;;;;;;;;;5066972;28;20048;-71
2022/12/02 02:11:19;;;;;;;4.15;2.45;;;;;;;;;;5064673;28;20049;-72
2022/12/02 02:13:47;;;;;;;6.95;3.70;;;;;;;;;;5061086;28;20051;-71
2022/12/02 02:16:16;;;;;;;9.43;2.75;;;;;;;;;;5071355;28;20053;-72
2022/12/02 02:18:44;;;;;;;5.70;3.03;;;;;;;;;;5064669;28;20044;-71
2022/12/02 02:21:17;;;;;;;4.93;1.23;;;;;;;;;;5072754;28;20059;-71
2022/12/02 02:23:47;;;;;;;9.57;2.30;;;;;;;;;;5057812;28;20114;-71
2022/12/02 02:26:16;;;;;;;8.40;2.28;;;;;;;;;;5045795;28;20053;-72
2022/12/02 02:28:44;;;;;;;5.60;3.35;;;;;;;;;;5046330;28;20067;-72
2022/12/02 02:31:12;;;;;;;11.50;3.15;;;;;;;;;;5038719;28;20052;-71
2022/12/02 02:33:41;;;;;;;4.28;3.28;;;;;;;;;;5047724;28;20044;-71
2022/12/02 02:36:09;;;;;;;3.35;2.25;;;;;;;;;;5041964;28;20045;-71
2022/12/02 02:38:38;;;;;;;6.68;3.90;;;;;;;;;;5049023;28;20049;-71
2022/12/02 02:41:08;;;;;;;6.78;2.70;;;;;;;;;;5047155;28;20045;-72
2022/12/02 02:43:37;;;;;;;11.48;2.75;;;;;;;;;;5048537;28;20056;-71
2022/12/02 02:46:05;;;;;;;4.53;1.98;;;;;;;;;;5041713;28;20485;-71
2022/12/02 02:48:34;;;;;;;12.75;3.67;;;;;;;;;;5039024;28;20422;-70
2022/12/02 02:51:03;;;;;;;3.53;1.52;;;;;;;;;;5042577;28;20152;-70
2022/12/02 02:53:31;;;;;;;8.23;3.53;;;;;;;;;;5044196;28;20486;-71
2022/12/02 02:56:00;;;;;;;10.75;5.40;;;;;;;;;;5042983;28;20485;-71
2022/12/02 02:58:29;;;;;;;7.25;2.63;;;;;;;;;;5049538;28;20048;-71
2022/12/02 03:00:59;;;;;;;5.90;2.50;;;;;;;;;;5044517;28;20131;-71
2022/12/02 03:03:28;;;;;;;6.57;2.38;;;;;;;;;;5053619;28;20045;-71
2022/12/02 03:05:58;;;;;;;5.45;2.28;;;;;;;;;;5048722;28;20044;-72
2022/12/02 03:08:26;;;;;;;9.73;2.97;;;;;;;;;;5056593;28;20045;-71
2022/12/02 03:10:56;;;;;;;11.07;4.10;;;;;;;;;;5044356;28;20049;-71
2022/12/02 03:13:25;;;;;;;17.23;2.83;;;;;;;;;;5048041;28;20432;-71
2022/12/02 03:15:54;;;;;;;4.60;2.25;;;;;;;;;;5036028;28;20413;-71
2022/12/02 03:18:23;;;;;;;9.98;4.20;;;;;;;;;;5049066;28;20045;-71
2022/12/02 03:20:51;;;;;;;14.50;3.83;;;;;;;;;;5036482;28;20100;-71
2022/12/02 03:23:19;;;;;;;10.68;2.15;;;;;;;;;;5043681;28;20390;-71
2022/12/02 03:25:48;;;;;;;9.82;4.22;;;;;;;;;;5047448;28;20061;-70
2022/12/02 03:28:16;;;;;;;7.30;3.30;;;;;;;;;;5044731;28;20049;-71
2022/12/02 03:30:45;;;;;;;9.00;3.45;;;;;;;;;;5044272;28;20489;-71
2022/12/02 03:33:15;;;;;;;13.25;2.58;;;;;;;;;;5060248;28;20072;-72
2022/12/02 03:35:43;;;;;;;7.15;1.67;;;;;;;;;;5045733;28;20045;-72
2022/12/02 03:38:11;;;;;;;2.60;1.58;;;;;;;;;;5047130;28;20048;-71
2022/12/02 03:40:40;;;;;;;5.65;1.98;;;;;;;;;;5039856;28;20041;-73
2022/12/02 03:43:08;;;;;;;9.18;3.67;;;;;;;;;;5041297;28;20052;-70
2022/12/02 03:45:36;;;;;;;5.50;1.73;;;;;;;;;;5039844;28;20125;-72
2022/12/02 03:48:05;;;;;;;9.20;5.00;;;;;;;;;;5046868;28;20064;-72
2022/12/02 03:50:35;;;;;;;7.70;3.67;;;;;;;;;;5038256;28;20060;-73
2022/12/02 03:53:04;;;;;;;8.45;3.60;;;;;;;;;;5046134;28;20060;-73
2022/12/02 03:55:32;;;;;;;6.97;3.67;;;;;;;;;;5042503;28;20493;-73
2022/12/02 03:58:03;;;;;;;6.82;4.43;;;;;;;;;;5051066;28;20056;-71
2022/12/02 04:00:31;;;;;;;6.85;2.47;;;;;;;;;;5053326;28;20504;-72
2022/12/02 04:03:00;;;;;;;9.90;3.58;;;;;;;;;;5046380;28;20049;-71
2022/12/02 04:05:28;;;;;;;6.00;2.97;;;;;;;;;;5053659;28;20452;-71
2022/12/02 04:07:58;;;;;;;10.43;5.47;;;;;;;;;;5042333;28;20497;-71
2022/12/02 04:10:26;;;;;;;7.40;4.72;;;;;;;;;;5050722;28;22052;-71
2022/12/02 04:12:54;;;;;;;9.48;3.13;;;;;;;;;;5051030;28;20049;-72
2022/12/02 04:15:22;;;;;;;10.32;3.60;;;;;;;;;;5052016;28;20049;-71
2022/12/02 04:17:51;;;;;;;4.68;2.80;;;;;;;;;;5052625;28;20045;-71
2022/12/02 04:20:19;;;;;;;11.38;4.88;;;;;;;;;;5044825;28;20099;-70
2022/12/02 04:22:47;;;;;;;10.82;4.32;;;;;;;;;;5055543;28;20036;-71
2022/12/02 04:25:17;;;;;;;12.50;4.03;;;;;;;;;;5066303;28;20071;-71
2022/12/02 04:27:45;;;;;;;15.45;3.80;;;;;;;;;;5069938;28;20048;-71
2022/12/02 04:30:13;;;;;;;5.90;3.13;;;;;;;;;;5072001;28;20053;-71
2022/12/02 04:32:42;;;;;;;6.13;3.45;;;;;;;;;;5066630;28;20092;-71
2022/12/02 04:35:10;;;;;;;3.80;2.10;;;;;;;;;;5065758;28;20052;-72
2022/12/02 04:37:38;;;;;;;11.90;3.47;;;;;;;;;;5075690;28;20048;-71
2022/12/02 04:40:07;;;;;;;4.90;1.33;;;;;;;;;;5070889;28;20040;-72
2022/12/02 04:42:37;;;;;;;12.65;4.22;;;;;;;;;;5068305;28;20049;-72
2022/12/02 04:45:05;;;;;;;4.32;2.47;;;;;;;;;;5065839;28;20048;-71
2022/12/02 04:47:34;;;;;;;12.25;3.72;;;;;;;;;;5074916;28;20143;-72
2022/12/02 04:50:02;;;;;;;9.90;3.83;;;;;;;;;;5068003;28;20045;-70
2022/12/02 04:52:30;;;;;;;8.10;2.92;;;;;;;;;;5072699;28;20047;-71
2022/12/02 04:54:58;;;;;;;12.30;3.42;;;;;;;;;;5074392;28;20534;-71
2022/12/02 04:57:27;;;;;;;13.18;4.15;;;;;;;;;;5066338;28;20041;-71
2022/12/02 05:00:00;;;;;;;10.55;2.70;;;;;;;;;;5057730;28;20076;-71
2022/12/02 05:02:28;;;;;;;9.15;2.95;;;;;;;;;;5071073;28;20066;-71
2022/12/02 05:04:56;;;;;;;11.80;3.50;;;;;;;;;;5073183;28;20059;-71
2022/12/02 05:07:25;;;;;;;6.07;2.92;;;;;;;;;;5060517;28;20082;-72
2022/12/02 05:09:53;;;;;;;7.55;1.35;;;;;;;;;;5068432;28;20044;-71
2022/12/02 05:12:23;;;;;;;3.17;2.30;;;;;;;;;;5071377;28;20052;-71
2022/12/02 05:14:51;;;;;;;10.25;2.65;;;;;;;;;;5065185;28;20048;-71
2022/12/02 05:17:21;;;;;;;6.60;3.35;;;;;;;;;;5076736;28;20114;-71
2022/12/02 05:19:50;;;;;;;10.10;2.85;;;;;;;;;;5068430;28;20048;-71
2022/12/02 05:22:18;;;;;;;11.27;3.05;;;;;;;;;;5068946;28;20540;-71
2022/12/02 05:24:47;;;;;;;9.52;3.40;;;;;;;;;;5069943;28;20056;-71
2022/12/02 05:27:15;;;;;;;6.28;2.72;;;;;;;;;;5060246;28;20056;-71
2022/12/02 05:29:44;;;;;;;4.47;3.38;;;;;;;;;;5064388;28;20040;-71
2022/12/02 05:32:12;;;;;;;8.23;4.15;;;;;;;;;;5069167;28;20048;-70
2022/12/02 05:34:42;;;;;;;15.52;4.20;;;;;;;;;;5060255;28;20045;-71
2022/12/02 05:37:10;;;;;;;9.88;3.33;;;;;;;;;;5067981;28;20044;-72
2022/12/02 05:39:38;;;;;;;9.52;3.05;;;;;;;;;;5070568;28;20044;-72
2022/12/02 05:42:08;;;;;;;11.10;4.35;;;;;;;;;;5064501;28;20048;-72
2022/12/02 05:44:36;;;;;;;9.95;4.90;;;;;;;;;;5067894;28;20173;-71
2022/12/02 05:47:19;;;;;;;11.20;5.85;;;;;;;;;;5065606;28;20057;-72
2022/12/02 05:49:48;;;;;;;14.30;3.30;;;;;;;;;;5073429;28;20465;-72
2022/12/02 05:52:21;;;;;;;7.20;3.45;;;;;;;;;;5069671;28;20040;-71
2022/12/02 05:54:49;;;;;;;4.38;1.70;;;;;;;;;;5064235;28;20056;-70
2022/12/02 05:57:18;;;;;;;6.45;3.47;;;;;;;;;;5065866;28;20550;-72
2022/12/02 05:59:56;;;;;;;5.45;3.33;;;;;;;;;;5068029;28;20058;-72
2022/12/02 06:02:26;;;;;;;8.02;3.03;;;;;;;;;;5069407;28;20044;-74
2022/12/02 06:04:57;;;;;;;5.78;3.70;;;;;;;;;;5062301;28;20050;-72
2022/12/02 06:07:25;;;;;;;11.48;3.13;;;;;;;;;;5064236;28;20072;-70
2022/12/02 06:09:53;;;;;;;10.68;3.47;;;;;;;;;;5064987;28;20060;-73
2022/12/02 06:12:22;;;;;;;11.82;2.90;;;;;;;;;;5066249;28;20045;-72
2022/12/02 06:14:52;;;;;;;10.57;4.10;;;;;;;;;;5066039;28;20489;-73
2022/12/02 06:17:22;;;;;;;7.93;2.92;;;;;;;;;;5066440;28;20044;-72
2022/12/02 06:19:52;;;;;;;11.55;2.97;;;;;;;;;;5069441;28;20064;-73
2022/12/02 06:22:24;;;;;;;11.32;4.20;;;;;;;;;;5064225;28;20058;-72
2022/12/02 06:24:53;;;;;;;9.93;3.17;;;;;;;;;;5053203;28;20098;-72
2022/12/02 06:27:22;;;;;;;8.77;4.30;;;;;;;;;;5063886;28;20041;-73
2022/12/02 06:29:51;;;;;;;3.45;2.17;;;;;;;;;;5067381;28;20064;-72
2022/12/02 06:32:20;;;;;;;7.40;3.92;;;;;;;;;;5055775;28;20528;-72
2022/12/02 06:34:49;;;;;;;8.88;2.88;;;;;;;;;;5058783;28;20395;-73
2022/12/02 06:37:19;;;;;;;11.57;4.22;;;;;;;;;;5058635;28;20049;-71
2022/12/02 06:39:50;;;;;;;7.93;2.65;;;;;;;;;;5060324;28;20078;-72
2022/12/02 06:42:39;;;;;;;15.40;3.35;;;;;;;;;;5064528;28;20049;-72
2022/12/02 06:45:08;;;;;;;8.38;4.85;;;;;;;;;;5060911;28;20055;-72
2022/12/02 06:48:07;;;;;;;6.72;4.18;;;;;;;;;;5055072;28;20064;-71
2022/12/02 06:50:36;;;;;;;9.38;2.45;;;;;;;;;;4994733;28;20046;-71
2022/12/02 06:53:28;;;;;;;6.25;3.72;;;;;;;;;;5051201;28;20044;-72
2022/12/02 06:56:00;;;;;;;10.55;3.00;;;;;;;;;;5057922;28;20045;-72
2022/12/02 06:58:30;;;;;;;3.03;2.40;;;;;;;;;;5065154;28;20085;-71
2022/12/02 07:01:09;;;;;;;5.00;2.30;;;;;;;;;;5063818;28;20063;-72
2022/12/02 07:03:39;;;;;;;18.38;4.40;;;;;;;;;;5061648;28;20048;-71
2022/12/02 07:06:14;;;;;;;5.45;3.47;;;;;;;;;;5065556;28;20056;-72
2022/12/02 07:08:42;;;;;;;4.60;2.25;;;;;;;;;;5054212;28;20512;-71
2022/12/02 07:11:48;;;;;;;10.38;5.03;;;;;;;;;;5055908;28;20131;-72
2022/12/02 07:14:16;;;;;;;6.95;3.30;;;;;;;;;;5060511;28;20784;-72
2022/12/02 07:16:45;;;;;;;11.90;3.67;;;;;;;;;;5060265;28;20059;-72
2022/12/02 07:19:16;;;;;;;10.55;4.47;;;;;;;;;;5063241;28;20048;-71
2022/12/02 07:21:44;;;;;;;3.58;2.38;;;;;;;;;;5064902;28;20049;-72
2022/12/02 07:24:21;;;;;;;4.95;3.05;;;;;;;;;;5059200;28;20497;-71
2022/12/02 07:26:52;;;;;;;15.30;3.15;;;;;;;;;;5047015;28;20409;-72
2022/12/02 07:29:27;;;;;;;8.80;4.25;;;;;;;;;;5045803;28;20045;-72
2022/12/02 07:31:55;;;;;;;5.20;2.40;;;;;;;;;;5048258;28;20052;-72
2022/12/02 07:34:24;;;;;;;9.13;4.05;;;;;;;;;;5045631;28;20075;-71
2022/12/02 07:36:58;;;;;;;12.23;3.28;;;;;;;;;;5047080;28;20080;-72
2022/12/02 07:39:26;;;;;;;6.13;2.75;;;;;;;;;;5036291;28;20055;-73
2022/12/02 07:41:56;;;;;;;8.43;3.05;;;;;;;;;;5042794;28;20041;-72
2022/12/02 07:44:24;;;;;;;10.38;4.68;;;;;;;;;;5045199;28;20497;-72
2022/12/02 07:46:53;;;;;;;9.48;3.58;;;;;;;;;;5050632;28;20075;-72
2022/12/02 07:49:21;;;;;;;15.95;4.03;;;;;;;;;;5048837;28;20052;-72
2022/12/02 07:51:49;;;;;;;14.18;3.92;;;;;;;;;;5057722;28;20112;-71
2022/12/02 07:54:18;;;;;;;11.07;3.05;;;;;;;;;;5036069;28;20045;-71
2022/12/02 07:56:46;;;;;;;10.02;2.78;;;;;;;;;;5047618;28;20052;-72
2022/12/02 07:59:16;;;;;;;6.00;2.22;;;;;;;;;;5048936;28;20530;-72
2022/12/02 08:01:45;;;;;;;9.30;2.97;;;;;;;;;;5046108;28;20045;-71
2022/12/02 08:04:13;;;;;;;18.13;5.85;;;;;;;;;;5052486;28;20048;-72
2022/12/02 08:06:42;;;;;;;4.97;4.28;;;;;;;;;;5052244;28;20060;-71
2022/12/02 08:09:10;;;;;;;9.05;3.75;;;;;;;;;;5048498;28;20110;-71
2022/12/02 08:11:39;;;;;;;13.30;3.03;;;;;;;;;;5045704;28;20071;-71
2022/12/02 08:14:07;;;;;;;7.47;3.78;;;;;;;;;;5044235;28;20056;-72
2022/12/02 08:16:37;;;;;;;9.77;3.03;;;;;;;;;;5045185;28;20053;-72
2022/12/02 08:19:06;;;;;;;10.65;3.53;;;;;;;;;;5048965;28;20425;-72
2022/12/02 08:21:34;;;;;;;9.88;3.20;;;;;;;;;;5048793;28;20049;-72
2022/12/02 08:24:04;;;;;;;13.02;4.90;;;;;;;;;;5045480;28;20128;-71
2022/12/02 08:26:32;;;;;;;7.05;2.67;;;;;;;;;;5071513;28;20044;-71
2022/12/02 08:29:01;;;;;;;9.75;4.03;;;;;;;;;;5072863;28;20150;-72
2022/12/02 08:31:29;;;;;;;5.50;3.35;;;;;;;;;;5075834;28;20051;-71
2022/12/02 08:33:59;;;;;;;9.20;1.83;;;;;;;;;;5072041;28;20044;-71
2022/12/02 08:36:34;;;;;;;8.18;3.22;;;;;;;;;;5076203;28;20140;-72
2022/12/02 08:39:04;;;;;;;12.45;3.70;;;;;;;;;;5068005;28;20048;-72
2022/12/02 08:41:33;;;;;;;13.10;4.47;;;;;;;;;;5062190;28;20124;-72
2022/12/02 08:44:02;;;;;;;15.32;4.93;;;;;;;;;;5069130;28;20048;-72
2022/12/02 08:46:30;;;;;;;3.33;2.83;;;;;;;;;;5075264;28;20526;-72
2022/12/02 08:49:00;;;;;;;4.20;3.45;;;;;;;;;;5068248;28;20055;-71
2022/12/02 08:51:29;;;;;;;11.38;3.90;;;;;;;;;;5067263;28;20074;-71
2022/12/02 08:53:58;;;;;;;7.43;3.03;;;;;;;;;;5070513;28;20047;-71
2022/12/02 08:56:26;;;;;;;10.75;3.58;;;;;;;;;;5082178;28;20058;-72
2022/12/02 08:58:55;;;;;;;9.57;4.00;;;;;;;;;;5066424;28;20093;-71
2022/12/02 09:01:23;;;;;;;9.20;2.25;;;;;;;;;;5065048;28;20044;-72
2022/12/02 09:03:52;;;;;;;18.23;4.35;;;;;;;;;;5057981;28;20470;-71
2022/12/02 09:06:22;;;;;;;6.32;4.28;;;;;;;;;;5065130;28;20071;-72
2022/12/02 09:08:50;;;;;;;8.93;3.28;;;;;;;;;;5064623;28;20055;-72
2022/12/02 09:11:19;;;;;;;10.63;4.32;;;;;;;;;;5069292;28;20049;-71
2022/12/02 09:13:48;;;;;;;5.47;2.97;;;;;;;;;;5068028;28;20097;-72
2022/12/02 09:16:16;;;;;;;8.80;3.20;;;;;;;;;;5069274;28;20075;-70
2022/12/02 09:18:45;;;;;;;8.27;2.67;;;;;;;;;;5066550;28;20106;-70
2022/12/02 09:21:14;;;;;;;19.20;4.60;;;;;;;;;;5069150;28;20879;-71
2022/12/02 09:23:44;;;;;;;6.97;3.20;;;;;;;;;;5066001;28;20075;-71
2022/12/02 09:26:17;;;;;;;;;;;;;;;;;;5057529;28;20057;-70
2022/12/02 09:28:46;;;;;;;7.10;4.18;;;;;;;;;;5065333;28;19920;-70
2022/12/02 09:31:15;;;;;;;9.63;3.83;;;;;;;;;;5060146;28;20056;-70
2022/12/02 09:33:44;;;;;;;11.95;2.72;;;;;;;;;;5069345;28;20053;-70
2022/12/02 09:36:12;;;;;;;11.18;3.63;;;;;;;;;;5067787;28;20492;-70
2022/12/02 09:38:41;;;;;;;5.63;3.60;;;;;;;;;;5063064;28;20124;-70
2022/12/02 09:41:11;;;;;;;19.60;6.55;;;;;;;;;;5063424;28;20051;-69
2022/12/02 09:43:41;;;;;;;11.32;4.43;;;;;;;;;;5063444;28;20072;-70
2022/12/02 09:46:09;;;;;;;3.70;2.92;;;;;;;;;;5063236;28;20044;-69
2022/12/02 09:48:38;;;;;;;7.30;3.67;;;;;;;;;;5070688;28;20096;-69
2022/12/02 09:51:07;;;;;;;7.85;3.15;;;;;;;;;;5062659;28;20061;-69
2022/12/02 09:53:38;;;;;;;8.73;4.10;;;;;;;;;;5068884;28;20101;-69
2022/12/02 09:56:11;;;;;;;12.50;5.85;;;;;;;;;;5067777;28;20063;-69
2022/12/02 09:58:41;;;;;;;9.20;4.43;;;;;;;;;;5066746;28;22811;-71
2022/12/02 10:01:11;;;;;;;9.88;3.42;;;;;;;;;;5066120;28;20361;-70
2022/12/02 10:03:40;;;;;;;11.43;3.88;;;;;;;;;;5067266;28;20049;-69
2022/12/02 10:06:13;;;;;;;7.50;1.55;;;;;;;;;;5062912;28;20133;-70
2022/12/02 10:08:41;;;;;;;12.07;3.08;;;;;;;;;;5068467;28;20040;-70
2022/12/02 10:11:12;;;;;;;9.77;5.65;;;;;;;;;;5068299;28;20086;-70
2022/12/02 10:13:42;;;;;;;7.90;4.05;;;;;;;;;;5051987;28;20055;-70
2022/12/02 10:16:12;;;;;;;5.60;3.22;;;;;;;;;;5057728;28;20052;-70
2022/12/02 10:18:41;;;;;;;17.80;3.78;;;;;;;;;;5056567;28;20041;-70
2022/12/02 10:21:10;;;;;;;11.30;4.60;;;;;;;;;;5068041;28;20084;-70
2022/12/02 10:23:53;;;;;;;7.88;3.60;;;;;;;;;;5064355;28;20115;-70
2022/12/02 10:26:21;;;;;;;5.32;3.35;;;;;;;;;;5066894;28;20053;-70
2022/12/02 10:29:02;;;;;;;5.78;2.97;;;;;;;;;;5067129;28;20611;-70
2022/12/02 10:31:31;;;;;;;5.47;3.10;;;;;;;;;;5067977;28;20303;-71
2022/12/02 10:34:01;;;;;;;5.10;3.03;;;;;;;;;;5062432;28;20048;-70
2022/12/02 10:36:33;;;;;;;10.15;3.83;;;;;;;;;;5062718;28;20102;-70
2022/12/02 10:39:18;;;;;;;9.52;2.58;;;;;;;;;;5064577;28;20218;-70
2022/12/02 10:41:47;;;;;;;4.28;2.40;;;;;;;;;;5065557;28;20052;-70
2022/12/02 10:44:18;;;;;;;14.13;3.38;;;;;;;;;;5066081;28;20062;-71
2022/12/02 10:46:47;;;;;;;6.90;2.70;;;;;;;;;;5062510;28;20106;-70
2022/12/02 10:49:27;;;;;;;16.45;4.60;;;;;;;;;;5069447;28;20104;-70
2022/12/02 10:51:59;;;;;;;3.53;2.60;;;;;;;;;;5064538;28;20463;-70
2022/12/02 10:54:28;;;;;;;11.48;3.05;;;;;;;;;;5070028;28;20135;-70
2022/12/02 10:56:57;;;;;;;10.75;3.42;;;;;;;;;;5067478;28;20434;-70
2022/12/02 10:59:27;;;;;;;12.00;3.28;;;;;;;;;;5065875;28;20056;-70
2022/12/02 11:01:56;;;;;;;12.02;3.65;;;;;;;;;;5062644;28;20045;-70
2022/12/02 11:04:25;;;;;;;11.63;3.72;;;;;;;;;;5061125;28;20041;-70
2022/12/02 11:06:54;;;;;;;10.32;2.88;;;;;;;;;;5068834;28;20054;-70
2022/12/02 11:09:24;;;;;;;7.80;2.40;;;;;;;;;;5064712;28;20052;-70
2022/12/02 11:12:26;;;;;;;7.07;2.78;;;;;;;;;;5066897;28;20056;-71
2022/12/02 11:14:56;;;;;;;9.60;3.38;;;;;;;;;;5068580;28;20060;-70
2022/12/02 11:17:43;;;;;;;14.02;3.83;;;;;;;;;;5055358;28;20122;-72
2022/12/02 11:20:30;;;;;;;10.57;3.88;;;;;;;;;;5066642;28;20052;-74
2022/12/02 11:23:25;;;;;;;1.58;1.48;;;;;;;;;;5061687;28;20480;-73
2022/12/02 11:26:11;;;;;;;5.38;2.08;;;;;;;;;;5067332;28;20550;-70
2022/12/02 11:28:47;;;;;;;4.53;2.47;;;;;;;;;;5071528;28;20051;-70
2022/12/02 11:31:21;;;;;;;7.30;2.53;;;;;;;;;;5064543;28;20053;-71
2022/12/02 11:34:00;;;;;;;8.50;3.50;;;;;;;;;;5068259;28;20056;-70
2022/12/02 11:36:34;;;;;;;4.25;2.15;;;;;;;;;;5063248;28;20055;-71
2022/12/02 11:39:05;;;;;;;7.35;2.65;;;;;;;;;;5064494;28;20040;-73
2022/12/02 11:41:48;;;;;;;5.20;2.78;;;;;;;;;;5063760;28;20199;-70
2022/12/02 11:44:24;;;;;;;7.57;2.63;;;;;;;;;;5066224;28;20048;-71
2022/12/02 11:46:55;;;;;;;12.10;4.85;;;;;;;;;;5063761;28;20055;-70
2022/12/02 11:49:31;;;;;;;5.03;3.30;;;;;;;;;;5064349;28;20052;-69
2022/12/02 11:52:13;;;;;;;6.38;2.20;;;;;;;;;;5067560;28;20128;-70
2022/12/02 11:54:42;;;;;;;9.82;2.65;;;;;;;;;;5069098;28;20040;-70
2022/12/02 11:57:17;;;;;;;5.43;2.83;;;;;;;;;;5070772;28;20055;-70
2022/12/02 11:59:45;;;;;;;7.25;2.72;;;;;;;;;;5066393;28;20511;-70
2022/12/02 12:02:16;;;;;;;5.10;3.35;;;;;;;;;;5065477;28;20055;-70
2022/12/02 12:04:45;;;;;;;3.30;2.33;;;;;;;;;;5063947;28;20093;-70
2022/12/02 12:07:14;;;;;;;4.63;1.90;;;;;;;;;;5057112;28;20181;-70
2022/12/02 12:09:42;;;;;;;4.28;1.88;;;;;;;;;;5065616;28;20144;-70
2022/12/02 12:12:15;;;;;;;6.53;2.63;;;;;;;;;;5067592;28;20056;-70
2022/12/02 12:15:01;;;;;;;2.70;1.48;;;;;;;;;;5070778;28;20103;-71
2022/12/02 12:17:46;;;;;;;7.80;3.70;;;;;;;;;;5064427;28;20048;-71
2022/12/02 12:20:33;;;;;;;5.03;2.88;;;;;;;;;;5069070;28;20045;-72
2022/12/02 12:23:17;;;;;;;5.57;2.08;;;;;;;;;;5073120;28;20044;-71
2022/12/02 12:25:45;;;;;;;12.93;3.60;;;;;;;;;;5069108;28;20051;-70
2022/12/02 12:28:23;;;;;;;14.13;3.55;;;;;;;;;;5069483;28;20052;-71
2022/12/02 12:30:52;;;;;;;6.55;2.75;;;;;;;;;;5066837;28;20151;-71
2022/12/02 12:33:22;;;;;;;3.25;1.98;;;;;;;;;;5066845;28;20048;-71
2022/12/02 12:35:52;;;;;;;7.90;2.83;;;;;;;;;;5064081;28;20131;-71
2022/12/02 12:38:21;;;;;;;6.22;2.95;;;;;;;;;;5068032;28;20051;-71
2022/12/02 12:40:57;;;;;;;12.43;3.22;;;;;;;;;;5070071;28;20466;-71
2022/12/02 12:43:26;;;;;;;6.00;3.10;;;;;;;;;;5066653;28;20122;-71
2022/12/02 12:45:54;;;;;;;4.95;2.55;;;;;;;;;;5070272;28;20047;-71
2022/12/02 12:48:24;;;;;;;7.03;2.13;;;;;;;;;;5066328;28;20609;-72
2022/12/02 12:50:53;;;;;;;5.70;3.85;;;;;;;;;;5068181;28;20053;-72
2022/12/02 12:53:21;;;;;;;10.57;3.78;;;;;;;;;;5066789;28;20048;-72
2022/12/02 12:55:50;;;;;;;6.90;3.72;;;;;;;;;;5071370;28;20127;-72
2022/12/02 12:58:26;;;;;;;10.13;2.95;;;;;;;;;;5059134;28;20048;-72
2022/12/02 13:00:55;;;;;;;13.98;3.13;;;;;;;;;;5067489;28;20053;-72
2022/12/02 13:03:25;;;;;;;4.97;2.45;;;;;;;;;;5055634;28;20037;-72
2022/12/02 13:05:54;;;;;;;7.63;2.85;;;;;;;;;;5065083;28;20079;-72
2022/12/02 13:08:23;;;;;;;8.77;3.33;;;;;;;;;;5067150;28;20051;-73
2022/12/02 13:10:51;;;;;;;6.20;3.08;;;;;;;;;;5064413;28;20117;-72
2022/12/02 13:13:20;;;;;;;5.70;3.40;;;;;;;;;;5062557;28;20044;-72
2022/12/02 13:15:48;;;;;;;7.13;3.92;;;;;;;;;;5064982;28;20520;-72
2022/12/02 13:18:17;;;;;;;4.28;2.67;;;;;;;;;;5069131;28;20060;-72
2022/12/02 13:20:46;;;;;;;3.20;1.60;;;;;;;;;;5069331;28;20109;-72
2022/12/02 13:23:15;;;;;;;3.75;2.63;;;;;;;;;;5063655;28;20495;-72
2022/12/02 13:25:44;;;;;;;16.80;3.42;;;;;;;;;;5065532;28;20072;-74
2022/12/02 13:28:12;;;;;;;3.47;2.33;;;;;;;;;;5060244;28;20088;-72
2022/12/02 13:30:41;;;;;;;6.78;3.15;;;;;;;;;;5073947;28;20194;-72
2022/12/02 13:33:10;;;;;;;3.00;2.22;;;;;;;;;;5067196;28;20052;-72
2022/12/02 13:35:40;;;;;;;7.97;3.58;;;;;;;;;;5074196;28;20048;-71
2022/12/02 13:38:10;;;;;;;10.93;3.88;;;;;;;;;;5069935;28;20044;-71
2022/12/02 13:40:39;;;;;;;5.50;2.60;;;;;;;;;;5067439;28;20044;-71
2022/12/02 13:43:07;;;;;;;3.17;2.03;;;;;;;;;;5062729;28;20484;-71
2022/12/02 13:45:36;;;;;;;7.95;2.88;;;;;;;;;;5062537;28;20064;-71
2022/12/02 13:48:05;;;;;;;4.63;2.53;;;;;;;;;;5070929;28;20074;-71
2022/12/02 13:50:40;;;;;;;8.77;2.63;;;;;;;;;;5067366;28;20164;-71
2022/12/02 13:53:10;;;;;;;2.40;1.67;;;;;;;;;;5066160;28;20103;-71
2022/12/02 13:55:38;;;;;;;4.20;1.95;;;;;;;;;;5065172;28;20091;-72
2022/12/02 13:58:07;;;;;;;6.93;2.80;;;;;;;;;;5069888;28;20047;-71
2022/12/02 14:00:35;;;;;;;6.18;3.65;;;;;;;;;;5063769;28;20489;-71
2022/12/02 14:03:04;;;;;;;3.47;2.20;;;;;;;;;;5068648;28;20098;-72
2022/12/02 14:05:32;;;;;;;10.75;3.30;;;;;;;;;;5069096;28;20123;-71
2022/12/02 14:08:00;;;;;;;7.55;2.08;;;;;;;;;;5063384;28;20083;-71
2022/12/02 14:10:30;;;;;;;4.18;2.38;;;;;;;;;;5069437;28;20067;-71
2022/12/02 14:12:59;;;;;;;3.10;1.77;;;;;;;;;;5059191;28;20160;-74
2022/12/02 14:15:27;;;;;;;12.48;2.72;;;;;;;;;;5063805;28;20048;-72
2022/12/02 14:17:56;;;;;;;4.10;2.78;;;;;;;;;;5056443;28;20057;-71
2022/12/02 14:20:24;;;;;;;7.60;2.08;;;;;;;;;;5069022;28;20568;-71
2022/12/02 14:22:53;;;;;;;4.53;2.70;;;;;;;;;;5065017;28;20048;-72
2022/12/02 14:25:21;;;;;;;5.75;2.15;;;;;;;;;;5069480;28;20052;-72
2022/12/02 14:27:51;;;;;;;3.13;1.48;;;;;;;;;;5065622;28;20519;-72
2022/12/02 14:30:20;;;;;;;5.53;1.73;;;;;;;;;;5065649;28;20040;-71
2022/12/02 14:32:49;;;;;;;3.55;2.53;;;;;;;;;;5065002;28;20109;-71
2022/12/02 14:35:17;;;;;;;3.28;2.30;;;;;;;;;;5068417;28;20101;-71
2022/12/02 14:37:45;;;;;;;9.50;2.60;;;;;;;;;;5067373;28;20098;-73
2022/12/02 14:40:14;;;;;;;9.43;1.77;;;;;;;;;;5063352;28;20218;-71
2022/12/02 14:42:42;;;;;;;7.55;2.78;;;;;;;;;;5056743;28;20135;-71
2022/12/02 14:45:12;;;;;;;4.22;2.03;;;;;;;;;;5062054;28;20056;-71
2022/12/02 14:47:41;;;;;;;4.28;2.10;;;;;;;;;;5068359;28;20127;-71
2022/12/02 14:50:09;;;;;;;5.20;2.50;;;;;;;;;;5063545;28;20048;-74
2022/12/02 14:52:38;;;;;;;3.20;2.13;;;;;;;;;;5068509;28;20056;-71
2022/12/02 14:55:07;;;;;;;6.82;3.45;;;;;;;;;;5070618;28;20048;-71
2022/12/02 14:57:35;;;;;;;6.28;2.78;;;;;;;;;;5062805;28;20487;-72
2022/12/02 15:00:04;;;;;;;7.10;2.10;;;;;;;;;;5067295;28;20052;-75
2022/12/02 15:02:34;;;;;;;5.95;2.40;;;;;;;;;;5069835;28;20164;-70